No particular awareness of the weather is required.    There are no Weather-warnings


Meteo18 Weather Cam more information Meteo18 Weather Cam


Thunder radar more information blitzortung!


Rain radar more information rain snow radar


Visit our other weather sites:

Template documentation
and downloads

And another site



Weather Underground History page Text

Daily Summary for August 21, 2016 Units:  Metric    English   Both
« Previous Day
Next Day »
Daily Weekly Monthly Yearly Custom
  High: Low: Average:
Temperature: 22.4 °C 11.5 °C 17.2 °C
Dew Point: 12.3 °C 7.9 °C 9.6 °C
Humidity: 91 % 41 % 63 %
Wind Speed: 16.1 km/h 0.0 km/h 5.3 km/h
Wind Gust: 29.0 km/h - -
Wind:- - West
Pressure: 1026.0 hPa 1018.8 hPa -
Precipitation: 0.0 mm    
Historical Graphs
 
 
Tabular Data for August 21, 2016
Time Temperature Dew Point Pressure Wind Wind Speed Wind Gust Humidity Rainfall Rate (Hourly)
00:02 17.4 °C 9.8 °C 1018.8 hPa West 6.4 km/h 16.1 km/h 61 % 0.0 mm
00:12 17.2 °C 9.9 °C 1019.2 hPa WSW 4.8 km/h 16.1 km/h 62 % 0.0 mm
00:17 17.2 °C 10.1 °C 1019.2 hPa West 9.7 km/h 16.1 km/h 63 % 0.0 mm
00:22 17.1 °C 10.0 °C 1019.2 hPa WSW 6.4 km/h 16.1 km/h 63 % 0.0 mm
00:27 17.0 °C 9.9 °C 1019.2 hPa SW 11.3 km/h 16.1 km/h 63 % 0.0 mm
00:32 16.9 °C 9.8 °C 1019.2 hPa WSW 9.7 km/h 16.1 km/h 63 % 0.0 mm
00:37 16.9 °C 10.0 °C 1019.5 hPa WSW 6.4 km/h 16.1 km/h 64 % 0.0 mm
00:42 16.9 °C 10.0 °C 1019.5 hPa SW 12.9 km/h 16.1 km/h 64 % 0.0 mm
00:47 16.9 °C 10.0 °C 1019.5 hPa WSW 14.5 km/h 16.1 km/h 64 % 0.0 mm
00:52 16.8 °C 10.0 °C 1019.5 hPa WSW 8.0 km/h 16.1 km/h 64 % 0.0 mm
00:57 16.7 °C 10.1 °C 1019.5 hPa South 6.4 km/h 17.7 km/h 65 % 0.0 mm
01:02 16.6 °C 10.0 °C 1019.5 hPa West 11.3 km/h 17.7 km/h 65 % 0.0 mm
01:07 16.6 °C 10.0 °C 1019.5 hPa WSW 11.3 km/h 14.5 km/h 65 % 0.0 mm
01:12 16.4 °C 10.0 °C 1019.5 hPa West 8.0 km/h 14.5 km/h 66 % 0.0 mm
01:17 16.4 °C 10.0 °C 1019.5 hPa SSW 8.0 km/h 14.5 km/h 66 % 0.0 mm
01:22 16.3 °C 10.2 °C 1019.5 hPa West 12.9 km/h 14.5 km/h 67 % 0.0 mm
01:27 16.3 °C 10.2 °C 1019.9 hPa WSW 6.4 km/h 17.7 km/h 67 % 0.0 mm
01:32 16.2 °C 10.1 °C 1019.9 hPa WSW 6.4 km/h 17.7 km/h 67 % 0.0 mm
01:37 16.2 °C 10.1 °C 1019.9 hPa WSW 9.7 km/h 17.7 km/h 67 % 0.0 mm
01:42 16.1 °C 10.2 °C 1019.9 hPa WSW 6.4 km/h 17.7 km/h 68 % 0.0 mm
01:47 15.9 °C 10.0 °C 1019.9 hPa WSW 9.7 km/h 16.1 km/h 68 % 0.0 mm
01:52 15.9 °C 10.2 °C 1019.9 hPa SW 6.4 km/h 16.1 km/h 69 % 0.0 mm
02:02 15.7 °C 10.2 °C 1019.9 hPa West 6.4 km/h 16.1 km/h 70 % 0.0 mm
02:12 15.5 °C 10.1 °C 1019.9 hPa WSW 1.6 km/h 14.5 km/h 70 % 0.0 mm
02:17 15.4 °C 10.2 °C 1019.9 hPa WSW 6.4 km/h 16.1 km/h 71 % 0.0 mm
02:22 15.3 °C 10.1 °C 1019.9 hPa WSW 6.4 km/h 16.1 km/h 71 % 0.0 mm
02:27 15.3 °C 10.3 °C 1019.9 hPa SW 6.4 km/h 14.5 km/h 72 % 0.0 mm
02:32 15.2 °C 10.2 °C 1019.9 hPa West 4.8 km/h 14.5 km/h 72 % 0.0 mm
02:37 15.1 °C 10.3 °C 1019.9 hPa SW 6.4 km/h 12.9 km/h 73 % 0.0 mm
02:42 15.0 °C 10.2 °C 1019.9 hPa WSW 3.2 km/h 12.9 km/h 73 % 0.0 mm
02:47 14.8 °C 10.2 °C 1020.2 hPa WSW 8.0 km/h 11.3 km/h 74 % 0.0 mm
02:52 14.8 °C 10.4 °C 1020.2 hPa WSW 4.8 km/h 11.3 km/h 75 % 0.0 mm
02:57 14.7 °C 10.3 °C 1020.2 hPa SW 1.6 km/h 11.3 km/h 75 % 0.0 mm
03:02 14.4 °C 9.8 °C 1020.2 hPa SSE 1.6 km/h 11.3 km/h 74 % 0.0 mm
03:07 14.1 °C 9.9 °C 1020.2 hPa SSW 3.2 km/h 11.3 km/h 76 % 0.0 mm
03:12 13.7 °C 9.7 °C 1020.2 hPa SSE 1.6 km/h 11.3 km/h 77 % 0.0 mm
03:17 13.4 °C 9.6 °C 1020.2 hPa Calm   8.0 km/h 78 % 0.0 mm
03:22 13.1 °C 9.7 °C 1020.2 hPa Calm   8.0 km/h 80 % 0.0 mm
03:32 12.7 °C 9.7 °C 1020.2 hPa Calm   4.8 km/h 82 % 0.0 mm
03:37 12.6 °C 9.8 °C 1020.2 hPa SSW 1.6 km/h 3.2 km/h 83 % 0.0 mm
03:42 12.5 °C 9.7 °C 1020.2 hPa Calm   3.2 km/h 83 % 0.0 mm
03:47 12.4 °C 9.6 °C 1020.2 hPa Calm   3.2 km/h 83 % 0.0 mm
03:52 12.5 °C 9.9 °C 1020.2 hPa South 1.6 km/h 4.8 km/h 84 % 0.0 mm
03:57 12.7 °C 9.9 °C 1020.2 hPa SSW 1.6 km/h 6.4 km/h 83 % 0.0 mm
04:02 12.9 °C 10.1 °C 1020.5 hPa Calm   6.4 km/h 83 % 0.0 mm
04:07 13.0 °C 10.2 °C 1020.5 hPa WSW 1.6 km/h 6.4 km/h 83 % 0.0 mm
04:12 13.2 °C 10.4 °C 1020.5 hPa SSW 3.2 km/h 6.4 km/h 83 % 0.0 mm
04:17 13.2 °C 10.4 °C 1020.5 hPa WSW 1.6 km/h 6.4 km/h 83 % 0.0 mm
04:22 13.3 °C 10.5 °C 1020.5 hPa Calm   6.4 km/h 83 % 0.0 mm
04:32 13.4 °C 10.4 °C 1020.9 hPa Calm   6.4 km/h 82 % 0.0 mm
04:37 13.3 °C 10.5 °C 1020.9 hPa Calm   6.4 km/h 83 % 0.0 mm
04:42 13.2 °C 10.4 °C 1020.9 hPa Calm   6.4 km/h 83 % 0.0 mm
04:47 13.1 °C 10.3 °C 1020.9 hPa SW 3.2 km/h 3.2 km/h 83 % 0.0 mm
04:57 12.8 °C 10.0 °C 1020.9 hPa Calm   3.2 km/h 83 % 0.0 mm
05:02 12.5 °C 9.9 °C 1020.9 hPa Calm   3.2 km/h 84 % 0.0 mm
05:12 12.0 °C 9.7 °C 1020.9 hPa Calm   1.6 km/h 86 % 0.0 mm
05:17 11.8 °C 9.5 °C 1020.9 hPa Calm   1.6 km/h 86 % 0.0 mm
05:22 11.6 °C 9.5 °C 1020.9 hPa SSW 3.2 km/h 3.2 km/h 87 % 0.0 mm
05:32 11.5 °C 9.7 °C 1021.2 hPa SSW 3.2 km/h 3.2 km/h 89 % 0.0 mm
05:42 11.7 °C 9.9 °C 1021.2 hPa SW 3.2 km/h 4.8 km/h 89 % 0.0 mm
05:52 11.7 °C 9.9 °C 1021.2 hPa SSE 1.6 km/h 4.8 km/h 89 % 0.0 mm
06:02 11.7 °C 9.8 °C 1021.2 hPa SSW 1.6 km/h 6.4 km/h 88 % 0.0 mm
06:07 11.6 °C 9.8 °C 1021.2 hPa SW 3.2 km/h 8.0 km/h 89 % 0.0 mm
06:12 11.6 °C 9.7 °C 1021.2 hPa South 1.6 km/h 8.0 km/h 88 % 0.0 mm
06:22 11.7 °C 10.1 °C 1021.2 hPa SW 1.6 km/h 6.4 km/h 90 % 0.0 mm
06:32 11.8 °C 10.0 °C 1021.2 hPa SW 1.6 km/h 6.4 km/h 89 % 0.0 mm
06:42 11.6 °C 10.0 °C 1021.2 hPa Calm   6.4 km/h 90 % 0.0 mm
06:47 11.5 °C 9.9 °C 1021.2 hPa SW 1.6 km/h 6.4 km/h 90 % 0.0 mm
07:02 11.7 °C 10.3 °C 1021.2 hPa SW 3.2 km/h 6.4 km/h 91 % 0.0 mm
07:12 12.1 °C 10.7 °C 1021.6 hPa SSW 4.8 km/h 11.3 km/h 91 % 0.0 mm
07:22 12.4 °C 10.8 °C 1021.6 hPa SSW 9.7 km/h 14.5 km/h 90 % 0.0 mm
07:42 12.4 °C 10.6 °C 1021.6 hPa WSW 4.8 km/h 19.3 km/h 89 % 0.0 mm
07:52 12.5 °C 10.7 °C 1021.9 hPa WSW 4.8 km/h 11.3 km/h 89 % 0.0 mm
08:02 12.8 °C 11.0 °C 1021.9 hPa WSW 1.6 km/h 11.3 km/h 89 % 0.0 mm
08:12 13.2 °C 11.3 °C 1021.9 hPa Calm   8.0 km/h 88 % 0.0 mm
08:17 13.4 °C 11.5 °C 1021.9 hPa SW 3.2 km/h 4.8 km/h 88 % 0.0 mm
08:22 13.5 °C 11.4 °C 1022.2 hPa WSW 4.8 km/h 4.8 km/h 87 % 0.0 mm
08:32 13.7 °C 11.6 °C 1022.2 hPa West 3.2 km/h 9.7 km/h 87 % 0.0 mm
08:42 13.7 °C 11.6 °C 1022.2 hPa West 8.0 km/h 16.1 km/h 87 % 0.0 mm
08:47 13.8 °C 11.7 °C 1022.2 hPa WSW 3.2 km/h 17.7 km/h 87 % 0.0 mm
08:52 13.8 °C 11.7 °C 1022.2 hPa WSW 14.5 km/h 17.7 km/h 87 % 0.0 mm
09:02 13.9 °C 11.6 °C 1022.2 hPa WSW 12.9 km/h 14.5 km/h 86 % 0.0 mm
09:12 14.1 °C 11.6 °C 1022.2 hPa WSW 6.4 km/h 17.7 km/h 85 % 0.0 mm
09:32 14.8 °C 12.1 °C 1022.2 hPa WSW 1.6 km/h 14.5 km/h 84 % 0.0 mm
09:42 15.5 °C 12.3 °C 1022.2 hPa WSW 8.0 km/h 14.5 km/h 81 % 0.0 mm
09:52 15.7 °C 11.9 °C 1022.2 hPa WSW 9.7 km/h 14.5 km/h 78 % 0.0 mm
10:02 15.8 °C 11.8 °C 1022.6 hPa West 4.8 km/h 17.7 km/h 77 % 0.0 mm
10:12 16.0 °C 12.0 °C 1022.6 hPa WSW 8.0 km/h 12.9 km/h 77 % 0.0 mm
10:22 16.1 °C 11.9 °C 1022.6 hPa WNW 9.7 km/h 12.9 km/h 76 % 0.0 mm
10:32 16.4 °C 11.1 °C 1022.6 hPa WSW 9.7 km/h 14.5 km/h 71 % 0.0 mm
10:42 16.5 °C 10.6 °C 1022.6 hPa West 8.0 km/h 16.1 km/h 68 % 0.0 mm
10:47 16.6 °C 10.9 °C 1022.6 hPa West 9.7 km/h 19.3 km/h 69 % 0.0 mm
10:52 16.6 °C 10.7 °C 1022.6 hPa WSW 12.9 km/h 19.3 km/h 68 % 0.0 mm
11:02 16.8 °C 11.1 °C 1022.6 hPa WSW 12.9 km/h 20.9 km/h 69 % 0.0 mm
11:07 17.2 °C 11.7 °C 1022.6 hPa West 6.4 km/h 16.1 km/h 70 % 0.0 mm
11:12 17.2 °C 11.5 °C 1022.6 hPa SW 6.4 km/h 16.1 km/h 69 % 0.0 mm
11:17 17.2 °C 11.2 °C 1022.6 hPa West 6.4 km/h 17.7 km/h 68 % 0.0 mm
11:22 17.3 °C 11.3 °C 1022.6 hPa West 9.7 km/h 17.7 km/h 68 % 0.0 mm
11:27 17.5 °C 11.3 °C 1022.6 hPa WSW 3.2 km/h 17.7 km/h 67 % 0.0 mm
11:32 18.1 °C 11.4 °C 1022.6 hPa WSW 9.7 km/h 17.7 km/h 65 % 0.0 mm
11:42 17.4 °C 11.0 °C 1022.6 hPa WNW 6.4 km/h 22.5 km/h 66 % 0.0 mm
11:47 17.3 °C 10.7 °C 1022.6 hPa West 9.7 km/h 22.5 km/h 65 % 0.0 mm
11:52 17.3 °C 11.1 °C 1022.6 hPa WSW 11.3 km/h 22.5 km/h 67 % 0.0 mm
11:57 17.2 °C 11.2 °C 1022.6 hPa WSW 6.4 km/h 19.3 km/h 68 % 0.0 mm
12:02 17.4 °C 11.7 °C 1022.6 hPa SSW 6.4 km/h 19.3 km/h 69 % 0.0 mm
12:12 17.3 °C 10.2 °C 1022.6 hPa WNW 16.1 km/h 19.3 km/h 63 % 0.0 mm
12:17 17.3 °C 10.2 °C 1022.9 hPa West 11.3 km/h 17.7 km/h 63 % 0.0 mm
12:22 17.5 °C 10.1 °C 1022.9 hPa WNW 8.0 km/h 24.1 km/h 62 % 0.0 mm
12:27 17.7 °C 10.1 °C 1022.9 hPa SW 12.9 km/h 24.1 km/h 61 % 0.0 mm
12:32 17.8 °C 9.7 °C 1022.9 hPa West 8.0 km/h 20.9 km/h 59 % 0.0 mm
12:37 17.9 °C 9.0 °C 1022.9 hPa West 9.7 km/h 20.9 km/h 56 % 0.0 mm
12:42 18.3 °C 9.4 °C 1022.9 hPa West 12.9 km/h 22.5 km/h 56 % 0.0 mm
12:47 18.8 °C 9.8 °C 1022.6 hPa WNW 11.3 km/h 22.5 km/h 56 % 0.0 mm
12:57 19.2 °C 9.7 °C 1022.9 hPa WNW 6.4 km/h 25.7 km/h 54 % 0.0 mm
13:02 19.0 °C 9.2 °C 1022.9 hPa West 4.8 km/h 25.7 km/h 53 % 0.0 mm
13:07 19.4 °C 9.0 °C 1022.9 hPa West 14.5 km/h 22.5 km/h 51 % 0.0 mm
13:17 19.4 °C 8.7 °C 1022.9 hPa WNW 12.9 km/h 29.0 km/h 50 % 0.0 mm
13:22 19.1 °C 9.0 °C 1022.9 hPa SW 4.8 km/h 29.0 km/h 52 % 0.0 mm
13:27 19.1 °C 9.3 °C 1022.9 hPa WNW 12.9 km/h 24.1 km/h 53 % 0.0 mm
13:32 19.2 °C 9.4 °C 1022.9 hPa WSW 9.7 km/h 24.1 km/h 53 % 0.0 mm
13:37 19.3 °C 8.6 °C 1022.9 hPa West 9.7 km/h 19.3 km/h 50 % 0.0 mm
13:42 19.2 °C 8.8 °C 1022.9 hPa WNW 12.9 km/h 19.3 km/h 51 % 0.0 mm
13:47 19.0 °C 8.3 °C 1022.9 hPa West 4.8 km/h 25.7 km/h 50 % 0.0 mm
13:52 19.4 °C 8.4 °C 1022.9 hPa WSW 8.0 km/h 25.7 km/h 49 % 0.0 mm
13:57 19.9 °C 8.6 °C 1022.9 hPa West 12.9 km/h 25.7 km/h 48 % 0.0 mm
14:02 20.2 °C 8.5 °C 1022.9 hPa WNW 14.5 km/h 25.7 km/h 47 % 0.0 mm
14:07 20.4 °C 8.7 °C 1022.9 hPa SW 14.5 km/h 25.7 km/h 47 % 0.0 mm
14:12 20.4 °C 8.7 °C 1022.9 hPa WSW 6.4 km/h 25.7 km/h 47 % 0.0 mm
14:17 20.1 °C 8.7 °C 1022.9 hPa NW 9.7 km/h 19.3 km/h 48 % 0.0 mm
14:22 19.7 °C 9.0 °C 1022.9 hPa WNW 4.8 km/h 19.3 km/h 50 % 0.0 mm
14:32 20.1 °C 8.1 °C 1022.9 hPa WSW 3.2 km/h 24.1 km/h 46 % 0.0 mm
14:37 20.3 °C 8.3 °C 1022.9 hPa WNW 9.7 km/h 24.1 km/h 46 % 0.0 mm
14:42 20.4 °C 8.4 °C 1022.9 hPa WNW 6.4 km/h 24.1 km/h 46 % 0.0 mm
14:47 20.4 °C 8.7 °C 1022.9 hPa WNW 3.2 km/h 19.3 km/h 47 % 0.0 mm
14:52 20.3 °C 8.6 °C 1022.9 hPa WSW 6.4 km/h 19.3 km/h 47 % 0.0 mm
14:57 20.6 °C 9.2 °C 1023.2 hPa NW 1.6 km/h 19.3 km/h 48 % 0.0 mm
15:02 21.2 °C 8.8 °C 1023.2 hPa WNW 3.2 km/h 19.3 km/h 45 % 0.0 mm
15:12 21.2 °C 8.1 °C 1023.2 hPa WNW 12.9 km/h 24.1 km/h 43 % 0.0 mm
15:17 21.4 °C 9.0 °C 1023.2 hPa WSW 6.4 km/h 22.5 km/h 45 % 0.0 mm
15:22 21.3 °C 8.9 °C 1023.2 hPa NW 9.7 km/h 22.5 km/h 45 % 0.0 mm
15:32 20.5 °C 8.8 °C 1023.2 hPa NW 6.4 km/h 22.5 km/h 47 % 0.0 mm
15:42 20.3 °C 8.3 °C 1023.2 hPa WNW 3.2 km/h 17.7 km/h 46 % 0.0 mm
15:47 20.5 °C 8.5 °C 1023.2 hPa WNW 6.4 km/h 16.1 km/h 46 % 0.0 mm
15:52 20.7 °C 8.3 °C 1023.2 hPa WNW 4.8 km/h 16.1 km/h 45 % 0.0 mm
15:57 20.9 °C 8.5 °C 1023.2 hPa West 11.3 km/h 20.9 km/h 45 % 0.0 mm
16:02 20.7 °C 8.3 °C 1023.2 hPa West 6.4 km/h 20.9 km/h 45 % 0.0 mm
16:07 20.6 °C 8.6 °C 1023.2 hPa WNW 4.8 km/h 17.7 km/h 46 % 0.0 mm
16:12 20.9 °C 8.5 °C 1023.2 hPa NW 6.4 km/h 17.7 km/h 45 % 0.0 mm
16:22 20.8 °C 8.4 °C 1023.2 hPa NW 8.0 km/h 14.5 km/h 45 % 0.0 mm
16:27 20.8 °C 8.4 °C 1023.2 hPa West 9.7 km/h 14.5 km/h 45 % 0.0 mm
16:37 21.3 °C 9.2 °C 1023.2 hPa Calm   14.5 km/h 46 % 0.0 mm
16:42 21.7 °C 8.6 °C 1023.2 hPa NNW 4.8 km/h 14.5 km/h 43 % 0.0 mm
16:52 22.0 °C 8.5 °C 1023.2 hPa WNW 6.4 km/h 19.3 km/h 42 % 0.0 mm
16:57 21.9 °C 8.8 °C 1023.2 hPa West 9.7 km/h 19.3 km/h 43 % 0.0 mm
17:02 21.6 °C 8.5 °C 1023.2 hPa WNW 9.7 km/h 19.3 km/h 43 % 0.0 mm
17:12 21.6 °C 8.5 °C 1023.2 hPa West 8.0 km/h 19.3 km/h 43 % 0.0 mm
17:17 21.5 °C 8.7 °C 1023.2 hPa WSW 9.7 km/h 20.9 km/h 44 % 0.0 mm
17:22 21.3 °C 7.9 °C 1023.6 hPa WNW 4.8 km/h 20.9 km/h 42 % 0.0 mm
17:27 21.5 °C 8.0 °C 1023.2 hPa West 6.4 km/h 17.7 km/h 42 % 0.0 mm
17:32 21.3 °C 7.9 °C 1023.2 hPa West 3.2 km/h 17.7 km/h 42 % 0.0 mm
17:37 21.6 °C 8.1 °C 1023.2 hPa WNW 12.9 km/h 14.5 km/h 42 % 0.0 mm
17:42 21.9 °C 8.1 °C 1023.6 hPa WNW 6.4 km/h 14.5 km/h 41 % 0.0 mm
17:47 21.7 °C 8.2 °C 1023.2 hPa West 6.4 km/h 19.3 km/h 42 % 0.0 mm
17:52 21.8 °C 8.3 °C 1023.6 hPa WSW 3.2 km/h 19.3 km/h 42 % 0.0 mm
18:02 21.7 °C 8.6 °C 1023.6 hPa WNW 4.8 km/h 16.1 km/h 43 % 0.0 mm
18:07 21.6 °C 8.5 °C 1023.6 hPa West 8.0 km/h 16.1 km/h 43 % 0.0 mm
18:17 21.8 °C 8.3 °C 1023.6 hPa WNW 3.2 km/h 16.1 km/h 42 % 0.0 mm
18:22 22.0 °C 8.5 °C 1023.6 hPa West 4.8 km/h 16.1 km/h 42 % 0.0 mm
18:32 22.4 °C 8.9 °C 1023.6 hPa WNW 11.3 km/h 11.3 km/h 42 % 0.0 mm
18:37 22.4 °C 8.9 °C 1023.6 hPa WSW 12.9 km/h 12.9 km/h 42 % 0.0 mm
18:47 22.3 °C 8.8 °C 1023.6 hPa West 6.4 km/h 19.3 km/h 42 % 0.0 mm
18:52 22.4 °C 8.5 °C 1023.6 hPa SW 3.2 km/h 19.3 km/h 41 % 0.0 mm
19:02 22.3 °C 8.8 °C 1023.6 hPa WNW 6.4 km/h 17.7 km/h 42 % 0.0 mm
19:07 21.8 °C 8.7 °C 1023.6 hPa WNW 4.8 km/h 17.7 km/h 43 % 0.0 mm
19:12 21.8 °C 9.0 °C 1023.6 hPa NNW 4.8 km/h 17.7 km/h 44 % 0.0 mm
19:17 21.9 °C 8.8 °C 1023.6 hPa West 1.6 km/h 17.7 km/h 43 % 0.0 mm
19:22 22.1 °C 8.9 °C 1023.6 hPa West 1.6 km/h 17.7 km/h 43 % 0.0 mm
19:27 21.9 °C 8.8 °C 1023.9 hPa WNW 1.6 km/h 12.9 km/h 43 % 0.0 mm
19:32 22.2 °C 9.0 °C 1023.9 hPa SW 1.6 km/h 12.9 km/h 43 % 0.0 mm
19:37 22.2 °C 9.0 °C 1023.9 hPa SW 1.6 km/h 12.9 km/h 43 % 0.0 mm
19:42 21.9 °C 8.8 °C 1023.9 hPa NW 4.8 km/h 12.9 km/h 43 % 0.0 mm
19:47 21.8 °C 9.0 °C 1023.9 hPa NW 9.7 km/h 14.5 km/h 44 % 0.0 mm
19:52 21.6 °C 8.8 °C 1023.9 hPa NW 8.0 km/h 14.5 km/h 44 % 0.0 mm
19:57 21.7 °C 8.9 °C 1024.3 hPa West 1.6 km/h 17.7 km/h 44 % 0.0 mm
20:02 21.6 °C 8.8 °C 1024.3 hPa NW 6.4 km/h 17.7 km/h 44 % 0.0 mm
20:07 21.5 °C 9.1 °C 1024.3 hPa WNW 6.4 km/h 12.9 km/h 45 % 0.0 mm
20:12 21.3 °C 8.9 °C 1024.3 hPa WSW 3.2 km/h 12.9 km/h 45 % 0.0 mm
20:17 21.2 °C 9.1 °C 1024.3 hPa NW 4.8 km/h 9.7 km/h 46 % 0.0 mm
20:22 20.9 °C 8.8 °C 1024.3 hPa WNW 3.2 km/h 9.7 km/h 46 % 0.0 mm
20:32 20.6 °C 8.9 °C 1024.6 hPa WNW 1.6 km/h 6.4 km/h 47 % 0.0 mm
20:37 20.3 °C 8.9 °C 1024.6 hPa WNW 4.8 km/h 6.4 km/h 48 % 0.0 mm
20:42 20.0 °C 8.7 °C 1024.6 hPa WNW 1.6 km/h 6.4 km/h 48 % 0.0 mm
20:47 19.7 °C 8.7 °C 1024.6 hPa WNW 3.2 km/h 8.0 km/h 49 % 0.0 mm
20:52 19.4 °C 8.7 °C 1024.9 hPa WNW 1.6 km/h 8.0 km/h 50 % 0.0 mm
20:57 19.2 °C 8.8 °C 1024.9 hPa WNW 1.6 km/h 4.8 km/h 51 % 0.0 mm
21:02 18.8 °C 8.7 °C 1024.9 hPa WNW 1.6 km/h 4.8 km/h 52 % 0.0 mm
21:07 18.4 °C 8.6 °C 1024.9 hPa WNW 3.2 km/h 4.8 km/h 53 % 0.0 mm
21:12 18.3 °C 8.8 °C 1025.3 hPa WNW 1.6 km/h 4.8 km/h 54 % 0.0 mm
21:17 18.0 °C 8.8 °C 1025.3 hPa Calm   4.8 km/h 55 % 0.0 mm
21:22 17.8 °C 8.9 °C 1025.3 hPa Calm   4.8 km/h 56 % 0.0 mm
21:27 17.7 °C 8.8 °C 1025.3 hPa WNW 3.2 km/h 3.2 km/h 56 % 0.0 mm
21:32 17.5 °C 8.6 °C 1025.3 hPa WNW 3.2 km/h 3.2 km/h 56 % 0.0 mm
21:42 16.8 °C 8.7 °C 1025.6 hPa Calm   4.8 km/h 59 % 0.0 mm
21:47 16.6 °C 8.8 °C 1025.6 hPa Calm   4.8 km/h 60 % 0.0 mm
21:52 16.4 °C 8.9 °C 1025.6 hPa NW 1.6 km/h 4.8 km/h 61 % 0.0 mm
21:57 16.4 °C 8.9 °C 1025.6 hPa Calm   1.6 km/h 61 % 0.0 mm
22:12 16.1 °C 9.1 °C 1025.6 hPa Calm   1.6 km/h 63 % 0.0 mm
22:17 15.8 °C 8.8 °C 1025.6 hPa Calm     63 % 0.0 mm
22:22 15.6 °C 8.8 °C 1025.6 hPa Calm     64 % 0.0 mm
22:32 15.1 °C 9.0 °C 1025.6 hPa Calm     67 % 0.0 mm
22:37 15.0 °C 8.9 °C 1025.6 hPa Calm     67 % 0.0 mm
22:42 15.2 °C 8.9 °C 1025.6 hPa Calm     66 % 0.0 mm
22:47 15.1 °C 9.0 °C 1025.6 hPa Calm     67 % 0.0 mm
22:52 14.8 °C 9.0 °C 1025.6 hPa Calm     68 % 0.0 mm
23:02 14.6 °C 9.0 °C 1025.6 hPa Calm     69 % 0.0 mm
23:12 14.3 °C 8.9 °C 1025.6 hPa Calm     70 % 0.0 mm
23:17 14.2 °C 8.8 °C 1025.6 hPa Calm     70 % 0.0 mm
23:22 14.1 °C 8.9 °C 1025.6 hPa Calm     71 % 0.0 mm
23:27 14.0 °C 8.8 °C 1025.6 hPa Calm     71 % 0.0 mm
23:32 13.9 °C 8.9 °C 1026.0 hPa Calm     72 % 0.0 mm
23:37 13.9 °C 8.9 °C 1026.0 hPa Calm     72 % 0.0 mm
23:42 13.9 °C 8.9 °C 1026.0 hPa Calm     72 % 0.0 mm
23:52 13.6 °C 8.9 °C 1026.0 hPa Calm     73 % 0.0 mm
23:57 13.4 °C 8.9 °C 1026.0 hPa Calm     74 % 0.0 mm
Meteo18
Compliments of Weather Underground - 4 mb

Script developed by  Jim McMurry - jmcmurry@mwt.net Adapted for the template by  Wim van der Kuil - Leuven-Template.eu

You find our weather info also at:

European Weather Network

Weather Underground

Equipment we use:

Weather-station
Davis Vue

Weather-program
Meteohub

Weather-server
Raspberry PI 2 B+

Provider
1 and 1

Davis Vue

Meteohub

Raspberry PI 2 B+

1 and 1